< < Back
Terminal Aerodrome Forecast


Current Version              Previous Versions:   1  2  3  4  5  6  7  8  9  

Terminal Aerodrome Forecast

543
FTUS42 KFFC 030327 AAA
TAFMCN
TAF AMD
KMCN 030327Z 0303/0324 29003KT P6SM SCT035 BKN100
      TEMPO 0303/0306 -RA BKN035
     FM030600 03003KT 5SM BR BKN025
     FM030800 06004KT 4SM -RADZ BR OVC010
     FM031000 09005KT 2SM -RADZ BR OVC004
     FM031600 10006KT 3SM -RADZ BR OVC007
     FM032100 12005KT 4SM BR BKN012=



Latest METAR

193
SAUS80 KWBC 031800
MTRMCN
METAR KMCN 031753Z 00000KT 10SM OVC016 19/15 A3020 RMK AO2 SLP222
T01890150 10189 20139 58012


USA.gov is the U.S. government's official web portal to all federal, state and local government web resources and services.